Time;durP1;ratioP1;P1;durP2;ratioP2;P2;SDS_P1;SDS_P2;PMS_P1;PMS_P2;Temp;Humidity;BMP_temperature;BMP_pressure;BME280_temperature;BME280_humidity;BME280_pressure;Samples;Min_cycle;Max_cycle;Signal;HPM_P1;HPM_P2
2021/09/27 07:24:52;;;;;;;8.83;3.90;;;;;;;11.71;90.01;98754.97;1871509;76;22393;-60
2021/09/27 07:27:19;;;;;;;8.13;2.95;;;;;;;11.72;89.40;98751.22;1827799;77;20829;-60
2021/09/27 07:29:45;;;;;;;6.55;3.20;;;;;;;11.81;88.55;98748.20;1827973;78;21180;-60
2021/09/27 07:32:12;;;;;;;9.10;3.00;;;;;;;11.92;87.85;98749.71;1828012;78;20892;-60
2021/09/27 07:34:39;;;;;;;9.43;3.55;;;;;;;12.06;87.50;98747.98;1827921;78;20864;-60
2021/09/27 07:37:06;;;;;;;7.90;3.33;;;;;;;12.23;86.77;98751.61;1827839;78;20923;-60
2021/09/27 07:39:33;;;;;;;7.45;4.05;;;;;;;12.41;86.36;98752.80;1827794;78;21258;-61
2021/09/27 07:42:00;;;;;;;7.62;3.22;;;;;;;12.58;85.74;98747.77;1827891;78;21171;-60
2021/09/27 07:44:26;;;;;;;6.00;3.05;;;;;;;12.75;84.77;98747.59;1827915;78;21564;-60
2021/09/27 07:46:53;;;;;;;5.78;2.92;;;;;;;12.91;83.84;98752.25;1827941;78;20942;-61
2021/09/27 07:49:20;;;;;;;6.50;2.92;;;;;;;13.07;83.33;98749.69;1827819;78;20892;-61
2021/09/27 07:51:47;;;;;;;4.75;2.55;;;;;;;13.21;82.48;98755.97;1827867;78;20912;-60
2021/09/27 07:54:14;;;;;;;6.33;2.67;;;;;;;13.34;81.63;98753.89;1827897;78;21092;-62
2021/09/27 07:56:41;;;;;;;9.38;3.30;;;;;;;13.46;80.70;98754.27;1827685;78;20868;-59
2021/09/27 07:59:08;;;;;;;8.40;3.37;;;;;;;13.57;80.52;98747.66;1827834;78;20900;-58
2021/09/27 08:01:35;;;;;;;6.75;2.77;;;;;;;13.73;79.32;98755.52;1827781;78;20883;-59
2021/09/27 08:04:01;;;;;;;7.53;3.17;;;;;;;13.80;78.09;98756.76;1827813;78;20940;-59
2021/09/27 08:06:28;;;;;;;5.20;2.40;;;;;;;13.86;77.47;98760.16;1827895;78;21258;-60
2021/09/27 08:08:55;;;;;;;4.03;2.10;;;;;;;13.93;76.55;98760.58;1827860;78;20912;-60
2021/09/27 08:11:22;;;;;;;8.85;2.55;;;;;;;13.96;75.62;98746.54;1816873;77;20951;-60
2021/09/27 08:13:50;;;;;;;4.58;2.10;;;;;;;14.02;75.23;98755.59;1823011;78;21356;-60
2021/09/27 08:16:18;;;;;;;7.50;2.70;;;;;;;14.08;74.34;98759.01;1827857;78;20915;-60
2021/09/27 08:18:44;;;;;;;6.62;3.05;;;;;;;14.15;74.23;98752.70;1828265;78;21075;-61
2021/09/27 08:21:14;;;;;;;5.55;2.45;;;;;;;14.25;73.89;98755.20;1827835;78;21363;-61
2021/09/27 08:23:41;;;;;;;5.15;2.65;;;;;;;14.33;73.68;98755.91;1828024;78;20896;-61
2021/09/27 08:26:08;;;;;;;3.90;2.50;;;;;;;14.43;73.26;98762.48;1806299;78;21394;-61
2021/09/27 08:28:38;;;;;;;5.65;2.95;;;;;;;14.50;73.35;98757.50;1827991;78;20963;-60
2021/09/27 08:31:11;;;;;;;7.10;2.75;;;;;;;14.61;73.34;98761.61;1806771;78;21114;-61
2021/09/27 08:33:39;;;;;;;5.00;2.75;;;;;;;14.73;74.05;98764.63;1757221;81;21066;-61
2021/09/27 08:36:09;;;;;;;6.53;3.00;;;;;;;14.82;73.31;98769.56;1757446;81;21442;-61
2021/09/27 08:38:39;;;;;;;5.15;2.95;;;;;;;14.88;73.11;98767.58;1757558;81;20894;-60
2021/09/27 08:41:29;;;;;;;11.50;2.90;;;;;;;14.90;72.08;98770.23;1757514;81;20978;-60
2021/09/27 08:44:37;;;;;;;7.10;2.83;;;;;;;14.89;72.69;98771.32;1757353;81;21114;-60
2021/09/27 08:47:33;;;;;;;6.60;2.72;;;;;;;14.96;71.83;98769.56;1757295;81;20914;-60
2021/09/27 08:50:31;;;;;;;6.47;2.60;;;;;;;15.02;71.44;98775.94;1757290;81;20915;-61
2021/09/27 08:53:01;;;;;;;4.17;2.30;;;;;;;14.99;70.54;98771.13;1757350;81;21485;-61
2021/09/27 08:55:30;;;;;;;8.68;2.80;;;;;;;15.02;70.48;98765.14;1757176;81;20981;-61
2021/09/27 08:58:17;;;;;;;7.62;2.62;;;;;;;15.12;70.44;98762.77;1730639;81;21388;-61
2021/09/27 09:00:51;;;;;;;3.30;2.10;;;;;;;15.25;69.44;98765.22;1757405;80;20931;-60
2021/09/27 09:03:52;;;;;;;3.05;2.00;;;;;;;15.35;68.86;98762.31;1783640;80;20966;-60
2021/09/27 09:06:33;;;;;;;4.12;2.00;;;;;;;15.39;68.27;98756.55;1787662;80;20891;-60
2021/09/27 09:09:17;;;;;;;5.97;2.22;;;;;;;15.48;68.03;98753.41;1788668;80;20907;-60
2021/09/27 09:12:01;;;;;;;4.37;2.05;;;;;;;15.56;68.36;98747.30;1766708;80;21109;-61
2021/09/27 09:14:39;;;;;;;8.18;2.58;;;;;;;15.62;67.85;98746.88;1757566;81;20926;-61
2021/09/27 09:17:40;;;;;;;4.25;2.25;;;;;;;15.71;66.87;98745.05;1757428;81;20919;-60
2021/09/27 09:20:28;;;;;;;4.12;1.72;;;;;;;15.72;66.67;98743.15;1756669;81;21419;-59
2021/09/27 09:22:58;;;;;;;8.83;2.35;;;;;;;15.72;66.93;98737.75;1757328;81;21446;-60
2021/09/27 09:25:32;;;;;;;3.15;1.75;;;;;;;15.83;66.76;98738.33;1756451;80;21756;-59
2021/09/27 09:28:01;;;;;;;;;;;;;;;15.87;65.86;98734.70;1766104;80;20863;-60
2021/09/27 09:30:52;;;;;;;6.97;2.22;;;;;;;15.97;66.40;98741.19;1776389;80;20106;-60
2021/09/27 09:33:43;;;;;;;5.40;1.80;;;;;;;16.05;65.91;98724.25;1768027;79;20900;-60
2021/09/27 09:36:24;;;;;;;4.10;2.42;;;;;;;16.20;65.34;98730.61;1740056;82;21050;-60
2021/09/27 09:38:51;;;;;;;4.12;1.67;;;;;;;16.35;64.61;98735.64;1732295;82;21120;-60
2021/09/27 09:41:20;;;;;;;5.47;1.67;;;;;;;16.50;63.91;98731.75;1746259;82;20907;-61
2021/09/27 09:43:50;;;;;;;5.53;1.60;;;;;;;16.58;63.75;98725.60;1746331;82;20983;-59
2021/09/27 09:46:31;;;;;;;4.35;1.65;;;;;;;16.65;62.56;98722.47;1745043;82;21070;-61
2021/09/27 09:49:07;;;;;;;3.08;1.20;;;;;;;16.72;62.82;98720.89;1745020;82;21054;-60
2021/09/27 09:51:37;;;;;;;;;;;;;;;16.82;62.35;98726.03;1747722;82;21161;-59
2021/09/27 09:54:22;;;;;;;3.02;1.20;;;;;;;16.90;61.20;98729.34;1734066;82;20178;-60
2021/09/27 09:57:10;;;;;;;3.12;1.27;;;;;;;16.88;60.47;98731.56;1734328;82;21080;-60
2021/09/27 09:59:42;;;;;;;4.65;1.30;;;;;;;16.84;60.11;98724.39;1735236;81;21562;-60
2021/09/27 10:02:17;;;;;;;2.77;1.55;;;;;;;16.80;60.08;98724.75;1735902;82;20944;-60
2021/09/27 10:04:53;;;;;;;5.28;1.30;;;;;;;16.83;60.74;98721.42;1734947;82;21526;-60
2021/09/27 10:07:28;;;;;;;3.17;1.42;;;;;;;16.94;60.31;98720.83;1743669;81;20940;-61
2021/09/27 10:10:03;;;;;;;;;;;;;;;17.03;59.68;98716.78;1747177;80;21476;-61
2021/09/27 10:12:49;;;;;;;2.10;1.12;;;;;;;16.98;58.49;98722.36;1761315;81;20105;-61
2021/09/27 10:15:38;;;;;;;2.70;1.30;;;;;;;16.88;58.51;98714.52;1748995;81;21025;-60
2021/09/27 10:18:22;;;;;;;3.95;1.27;;;;;;;16.85;59.15;98709.73;1745750;81;21126;-61
2021/09/27 10:21:10;;;;;;;;;;;;;;;16.77;59.84;98713.22;1748087;81;21400;-60
2021/09/27 10:23:41;;;;;;;3.85;1.42;;;;;;;16.62;59.38;98713.63;1765843;81;20393;-59
2021/09/27 10:26:22;;;;;;;3.60;1.50;;;;;;;16.36;59.94;98719.69;1765935;80;20975;-61
2021/09/27 10:28:51;;;;;;;1.40;0.90;;;;;;;16.25;60.30;98716.98;1765712;81;20861;-60
2021/09/27 10:31:20;;;;;;;1.30;0.85;;;;;;;16.26;60.43;98711.83;1759389;81;21091;-61
2021/09/27 10:34:04;;;;;;;2.87;1.10;;;;;;;16.29;59.77;98709.86;1747713;80;21483;-63
2021/09/27 10:36:43;;;;;;;2.17;1.00;;;;;;;16.43;59.93;98709.77;1735549;81;20925;-61
2021/09/27 10:39:14;;;;;;;2.10;0.95;;;;;;;16.66;59.12;98710.53;1735454;81;20973;-61
2021/09/27 10:41:58;;;;;;;4.28;1.22;;;;;;;16.84;58.60;98710.28;1715213;82;20889;-61
2021/09/27 10:44:34;;;;;;;2.65;0.80;;;;;;;17.03;58.62;98715.42;1735809;82;21771;-61
2021/09/27 10:47:10;;;;;;;1.67;0.85;;;;;;;17.17;57.01;98712.62;1734808;82;20845;-60
2021/09/27 10:49:50;;;;;;;2.95;1.10;;;;;;;17.21;55.70;98704.90;1735710;81;20905;-62
2021/09/27 10:52:22;;;;;;;1.95;1.10;;;;;;;17.22;56.03;98701.64;1735249;82;20952;-60
2021/09/27 10:55:27;;;;;;;1.98;1.00;;;;;;;17.28;56.26;98706.58;1735592;82;20889;-61
2021/09/27 10:58:07;;;;;;;2.85;1.10;;;;;;;17.19;55.87;98715.25;1735547;82;21792;-62
2021/09/27 11:00:51;;;;;;;2.87;0.98;;;;;;;17.21;56.61;98710.86;1739150;81;20968;-59
2021/09/27 11:03:38;;;;;;;1.40;0.80;;;;;;;17.26;56.30;98707.46;1735525;81;20897;-60
2021/09/27 11:06:39;;;;;;;2.58;1.05;;;;;;;17.26;53.95;98698.53;1741714;80;20901;-61
2021/09/27 11:09:28;;;;;;;2.67;1.00;;;;;;;17.15;55.60;98708.85;1767369;80;20980;-61
2021/09/27 11:12:19;;;;;;;2.90;0.90;;;;;;;17.14;55.09;98707.27;1765873;81;21133;-60
2021/09/27 11:14:52;;;;;;;3.10;1.00;;;;;;;17.22;55.45;98699.70;1764978;81;20995;-60
2021/09/27 11:17:41;;;;;;;3.27;1.10;;;;;;;17.25;54.80;98696.38;1765889;81;20901;-61
2021/09/27 11:20:31;;;;;;;1.12;0.65;;;;;;;17.04;54.62;98695.38;1744692;81;20979;-63
2021/09/27 11:23:09;;;;;;;3.00;1.10;;;;;;;16.97;55.16;98692.34;1734167;81;21063;-60
2021/09/27 11:25:39;;;;;;;2.95;0.90;;;;;;;17.16;55.77;98687.45;1713782;83;21010;-60
2021/09/27 11:28:30;;;;;;;3.02;1.00;;;;;;;17.46;55.37;98689.78;1783728;80;20931;-60
2021/09/27 11:31:09;;;;;;;1.72;1.00;;;;;;;17.74;54.29;98678.34;1805355;77;21090;-60
2021/09/27 11:33:42;;;;;;;1.02;0.80;;;;;;;18.00;53.20;98683.73;1795374;79;20915;-60
2021/09/27 11:36:23;;;;;;;3.10;0.80;;;;;;;18.18;53.09;98686.62;1783591;80;21046;-61
2021/09/27 11:38:53;;;;;;;3.45;0.90;;;;;;;18.35;53.10;98678.45;1782652;80;21050;-60
2021/09/27 11:41:24;;;;;;;4.55;0.90;;;;;;;18.58;51.40;98674.19;1779646;77;21552;-61
2021/09/27 11:44:28;;;;;;;3.35;1.17;;;;;;;18.68;51.86;98673.25;1800906;77;20950;-61
2021/09/27 11:47:10;;;;;;;2.33;0.90;;;;;;;18.83;50.07;98675.42;1793632;77;20978;-58
2021/09/27 11:50:05;;;;;;;3.70;0.95;;;;;;;18.84;50.50;98679.71;1782627;80;20974;-59
2021/09/27 11:52:52;;;;;;;1.65;1.00;;;;;;;18.70;50.39;98680.50;1743634;82;20907;-61
2021/09/27 11:55:37;;;;;;;1.60;1.00;;;;;;;18.73;49.91;98673.07;1711512;83;21063;-62
2021/09/27 11:58:10;;;;;;;;;;;;;;;18.89;50.15;98670.03;1746632;80;21054;-60
2021/09/27 12:00:42;;;;;;;1.40;0.90;;;;;;;19.03;49.37;98665.16;1713149;83;20113;-61
2021/09/27 12:03:33;;;;;;;2.58;1.00;;;;;;;19.20;49.13;98662.89;1713427;83;20964;-62
2021/09/27 12:06:16;;;;;;;1.80;0.75;;;;;;;19.37;48.56;98668.80;1744483;82;21151;-59
2021/09/27 12:08:54;;;;;;;;;;;;;;;19.32;46.70;98664.33;1786837;80;20974;-61
2021/09/27 12:11:22;;;;;;;2.72;0.85;;;;;;;19.17;46.67;98662.77;1784337;80;20105;-60
2021/09/27 12:13:59;;;;;;;1.92;1.00;;;;;;;19.22;47.55;98659.87;1744882;82;20926;-61
2021/09/27 12:16:36;;;;;;;2.47;1.00;;;;;;;19.32;47.26;98664.88;1713590;83;21471;-61
2021/09/27 12:19:18;;;;;;;1.57;1.00;;;;;;;19.36;47.60;98655.00;1714875;83;21164;-60
2021/09/27 12:21:54;;;;;;;4.50;0.80;;;;;;;19.40;47.36;98654.00;1713496;83;20924;-61
2021/09/27 12:24:28;;;;;;;1.82;0.85;;;;;;;19.46;46.89;98655.94;1746564;80;20935;-62
2021/09/27 12:27:20;;;;;;;2.50;1.00;;;;;;;19.54;47.11;98652.37;1754602;81;20986;-61
2021/09/27 12:30:09;;;;;;;1.95;1.00;;;;;;;19.67;45.74;98654.00;1766175;79;21459;-59
2021/09/27 12:32:53;;;;;;;5.28;1.00;;;;;;;19.60;46.24;98651.02;1779144;80;21766;-60
2021/09/27 12:35:31;;;;;;;;;;;;;;;19.56;46.29;98642.76;1788071;80;20914;-60
2021/09/27 12:37:58;;;;;;;2.60;1.00;;;;;;;19.65;45.65;98641.31;1765853;81;20085;-61
2021/09/27 12:40:37;;;;;;;2.00;1.00;;;;;;;19.70;46.02;98640.55;1738085;81;20976;-61
2021/09/27 12:43:15;;;;;;;1.63;0.90;;;;;;;19.82;45.67;98639.00;1766319;81;20884;-60
2021/09/27 12:46:00;;;;;;;4.83;1.10;;;;;;;19.85;44.73;98637.78;1766085;81;21090;-60
2021/09/27 12:48:36;;;;;;;4.42;3.50;;;;;;;19.80;44.81;98637.98;1775808;80;20940;-60
2021/09/27 12:51:08;;;;;;;4.67;2.42;;;;;;;19.87;44.54;98639.59;1780795;80;20900;-61
2021/09/27 12:53:45;;;;;;;3.95;1.40;;;;;;;19.90;44.16;98636.22;1792074;80;20888;-60
2021/09/27 12:56:14;;;;;;;2.17;0.98;;;;;;;19.78;44.14;98629.37;1795517;78;20880;-61
2021/09/27 12:58:51;;;;;;;1.82;0.90;;;;;;;19.74;44.49;98633.88;1831181;77;21149;-60
2021/09/27 13:01:20;;;;;;;1.00;0.88;;;;;;;19.82;43.90;98633.00;1824595;78;21031;-59
2021/09/27 13:04:00;;;;;;;4.67;1.17;;;;;;;19.90;44.16;98638.13;1824545;77;20947;-63
2021/09/27 13:06:32;;;;;;;1.50;1.10;;;;;;;19.96;44.05;98641.66;1823915;77;20932;-60
2021/09/27 13:09:13;;;;;;;1.98;0.98;;;;;;;20.05;43.75;98638.84;1824476;78;20927;-59
2021/09/27 13:11:44;;;;;;;0.78;0.70;;;;;;;20.07;43.31;98639.29;1778200;78;21175;-60
2021/09/27 13:14:26;;;;;;;3.33;1.40;;;;;;;20.10;43.80;98643.51;1824471;78;21372;-60
2021/09/27 13:17:10;;;;;;;1.57;0.88;;;;;;;20.19;42.96;98640.12;1824304;78;20967;-61
2021/09/27 13:19:48;;;;;;;1.85;1.00;;;;;;;20.28;43.60;98636.77;1822017;78;20920;-60
2021/09/27 13:22:41;;;;;;;1.17;0.80;;;;;;;20.28;42.69;98634.05;1823261;78;20955;-60
2021/09/27 13:25:33;;;;;;;4.05;1.22;;;;;;;20.14;43.24;98636.25;1819296;77;21206;-61
2021/09/27 13:28:36;;;;;;;2.85;1.02;;;;;;;20.15;43.38;98626.98;1814437;78;20970;-58
2021/09/27 13:31:14;;;;;;;1.72;1.05;;;;;;;20.17;43.72;98634.79;1819790;78;21553;-61
2021/09/27 13:33:47;;;;;;;5.75;1.07;;;;;;;20.19;43.65;98629.24;1776173;80;21010;-60
2021/09/27 13:36:37;;;;;;;3.10;0.95;;;;;;;20.11;43.76;98623.35;1776237;80;21088;-61
2021/09/27 13:39:15;;;;;;;4.35;1.20;;;;;;;20.09;43.93;98628.31;1760392;80;21058;-59
2021/09/27 13:42:08;;;;;;;5.08;1.12;;;;;;;19.84;43.61;98626.67;1771160;81;20993;-61
2021/09/27 13:44:42;;;;;;;3.87;1.10;;;;;;;19.62;44.41;98633.82;1771347;81;21453;-60
2021/09/27 13:47:10;;;;;;;4.87;1.07;;;;;;;19.56;44.23;98627.02;1766761;81;21053;-60
2021/09/27 13:49:38;;;;;;;2.00;1.00;;;;;;;19.44;44.76;98625.04;1771209;81;20985;-60
2021/09/27 13:52:08;;;;;;;3.22;0.90;;;;;;;19.36;45.16;98627.84;1771371;81;21126;-60
2021/09/27 13:54:36;;;;;;;1.47;0.90;;;;;;;19.36;44.82;98633.27;1806942;79;21544;-61
2021/09/27 13:57:07;;;;;;;3.05;1.00;;;;;;;19.36;44.44;98633.27;1807209;79;20958;-61
2021/09/27 13:59:33;;;;;;;4.15;0.93;;;;;;;19.38;44.78;98628.30;1815848;79;20963;-61
2021/09/27 14:02:00;;;;;;;3.85;1.47;;;;;;;19.34;45.05;98630.03;1817469;78;21080;-60
2021/09/27 14:04:29;;;;;;;4.35;1.00;;;;;;;19.21;45.32;98625.67;1816508;77;21179;-61
2021/09/27 14:06:56;;;;;;;2.50;1.07;;;;;;;19.16;45.96;98632.10;1811757;79;21520;-60
2021/09/27 14:09:22;;;;;;;1.77;0.88;;;;;;;19.06;45.77;98632.48;1811693;79;20867;-60
2021/09/27 14:11:50;;;;;;;2.05;0.90;;;;;;;18.98;46.37;98628.70;1811006;79;20980;-60
2021/09/27 14:14:17;;;;;;;3.15;1.10;;;;;;;19.09;46.74;98627.20;1810874;79;20898;-60
2021/09/27 14:16:45;;;;;;;4.10;1.42;;;;;;;19.29;46.36;98622.11;1811336;79;22191;-61
2021/09/27 14:19:11;;;;;;;2.10;1.30;;;;;;;19.30;45.65;98625.84;1811715;79;20903;-61
2021/09/27 14:21:40;;;;;;;2.85;0.88;;;;;;;19.21;45.50;98625.67;1811475;79;20831;-60
2021/09/27 14:24:09;;;;;;;2.05;0.95;;;;;;;19.26;46.10;98621.41;1811362;79;20977;-60
2021/09/27 14:26:36;;;;;;;1.47;1.00;;;;;;;19.38;46.21;98622.87;1823870;78;20984;-61
2021/09/27 14:29:03;;;;;;;1.55;0.78;;;;;;;19.50;45.27;98620.20;1825556;78;21174;-61
2021/09/27 14:31:32;;;;;;;1.55;0.85;;;;;;;19.51;44.74;98617.15;1825495;78;20873;-60
2021/09/27 14:33:58;;;;;;;4.00;1.32;;;;;;;19.28;45.08;98616.44;1825746;78;20966;-59
2021/09/27 14:36:25;;;;;;;3.15;1.00;;;;;;;19.28;45.72;98619.16;1825293;78;21019;-60
2021/09/27 14:38:54;;;;;;;4.90;0.95;;;;;;;19.38;45.68;98620.95;1825208;78;21495;-60
2021/09/27 14:41:22;;;;;;;2.37;0.90;;;;;;;19.45;45.15;98619.05;1825668;78;21115;-60
2021/09/27 14:43:49;;;;;;;1.52;0.80;;;;;;;19.55;44.71;98613.19;1825825;78;21483;-60
2021/09/27 14:46:17;;;;;;;4.22;1.02;;;;;;;19.65;44.53;98615.50;1825638;78;20932;-61
2021/09/27 14:48:43;;;;;;;3.17;1.40;;;;;;;19.68;44.20;98619.72;1825920;78;21436;-60
2021/09/27 14:51:10;;;;;;;4.47;1.80;;;;;;;19.67;44.37;98609.16;1825665;78;20862;-60
2021/09/27 14:53:38;;;;;;;4.15;1.40;;;;;;;19.64;44.08;98618.00;1825641;78;20925;-60
2021/09/27 14:56:05;;;;;;;2.92;1.20;;;;;;;19.57;44.42;98623.19;1825651;78;21007;-60
2021/09/27 14:58:32;;;;;;;4.08;1.05;;;;;;;19.38;45.00;98626.38;1825924;78;20902;-60
2021/09/27 15:01:02;;;;;;;5.00;1.05;;;;;;;19.08;45.37;98630.23;1825713;78;20877;-60
2021/09/27 15:03:29;;;;;;;2.58;1.10;;;;;;;18.60;46.27;98630.70;1825852;78;20890;-61
2021/09/27 15:05:57;;;;;;;2.58;1.20;;;;;;;18.12;46.99;98630.20;1825154;78;20971;-60
2021/09/27 15:08:24;;;;;;;2.83;1.05;;;;;;;17.72;48.21;98638.59;1824766;78;21452;-61
2021/09/27 15:10:54;;;;;;;2.27;1.12;;;;;;;17.23;49.27;98636.89;1825561;78;20916;-60
2021/09/27 15:13:21;;;;;;;5.25;1.20;;;;;;;16.88;50.00;98640.12;1825591;78;20921;-61
2021/09/27 15:15:50;;;;;;;2.98;1.30;;;;;;;16.58;50.82;98636.36;1825479;78;21342;-61
2021/09/27 15:18:21;;;;;;;2.08;1.00;;;;;;;16.33;51.53;98640.55;1825294;78;21119;-60
2021/09/27 15:20:50;;;;;;;2.55;1.57;;;;;;;16.11;52.55;98636.53;1825117;78;21008;-59
2021/09/27 15:23:18;;;;;;;1.40;1.30;;;;;;;15.87;52.95;98644.75;1825415;78;21005;-60
2021/09/27 15:26:13;;;;;;;1.85;1.30;;;;;;;15.66;54.08;98641.77;1805772;78;20974;-60
2021/09/27 15:28:43;;;;;;;5.97;1.40;;;;;;;15.44;55.13;98639.85;1776466;80;20933;-60
2021/09/27 15:31:12;;;;;;;4.22;1.60;;;;;;;15.23;56.42;98640.59;1776643;80;21850;-61
2021/09/27 15:33:42;;;;;;;1.95;1.30;;;;;;;15.07;56.39;98646.31;1746748;80;20929;-60
2021/09/27 15:36:12;;;;;;;2.80;1.60;;;;;;;14.94;56.48;98641.75;1776516;80;20934;-59
2021/09/27 15:38:40;;;;;;;3.25;1.70;;;;;;;14.81;57.11;98646.63;1776644;80;21000;-60
2021/09/27 15:41:10;;;;;;;3.00;2.40;;;;;;;14.67;58.10;98648.55;1776459;80;20981;-60
2021/09/27 15:43:37;;;;;;;4.97;1.45;;;;;;;14.49;58.48;98651.31;1776721;80;21485;-60
2021/09/27 15:46:03;;;;;;;3.70;1.82;;;;;;;14.31;58.76;98642.23;1776567;80;20914;-61
2021/09/27 15:48:30;;;;;;;3.00;1.10;;;;;;;14.15;59.79;98651.67;1776704;80;20919;-61
2021/09/27 15:50:56;;;;;;;2.00;1.20;;;;;;;13.99;60.08;98647.66;1776704;80;20970;-61
2021/09/27 15:53:23;;;;;;;2.42;1.30;;;;;;;13.87;60.51;98651.36;1776737;80;20918;-61
2021/09/27 15:55:51;;;;;;;3.65;2.35;;;;;;;13.80;61.30;98650.95;1776682;80;21406;-61
2021/09/27 15:58:19;;;;;;;1.92;1.47;;;;;;;13.72;62.15;98652.41;1776621;80;20942;-60
2021/09/27 16:00:46;;;;;;;1.75;1.20;;;;;;;13.59;62.68;98656.64;1777049;80;20921;-60
2021/09/27 16:03:14;;;;;;;3.12;1.20;;;;;;;13.46;63.11;98661.44;1776686;80;20970;-60
2021/09/27 16:05:43;;;;;;;2.72;1.37;;;;;;;13.38;63.26;98657.23;1776688;80;20937;-60
2021/09/27 16:08:11;;;;;;;3.10;1.55;;;;;;;13.32;63.64;98657.88;1776882;80;21063;-61
2021/09/27 16:10:39;;;;;;;1.72;1.17;;;;;;;13.22;63.72;98651.30;1776608;80;20933;-60
2021/09/27 16:13:07;;;;;;;1.30;1.20;;;;;;;13.12;64.30;98660.84;1776561;80;20973;-59
2021/09/27 16:15:36;;;;;;;1.62;1.30;;;;;;;13.08;64.59;98654.45;1776546;80;20961;-60
2021/09/27 16:18:08;;;;;;;3.45;1.60;;;;;;;13.01;65.02;98660.70;1776988;80;20847;-59
2021/09/27 16:20:37;;;;;;;1.75;1.20;;;;;;;12.96;65.36;98667.49;1776571;80;21516;-60
2021/09/27 16:23:05;;;;;;;2.33;1.30;;;;;;;12.87;65.56;98670.57;1776624;80;20882;-60
2021/09/27 16:25:35;;;;;;;2.10;1.30;;;;;;;12.82;65.55;98663.38;1776537;79;20974;-60
2021/09/27 16:28:03;;;;;;;3.90;1.45;;;;;;;12.77;65.93;98670.69;1776587;80;20937;-60
2021/09/27 16:30:32;;;;;;;4.42;1.80;;;;;;;12.70;66.05;98672.92;1776584;80;21377;-60
2021/09/27 16:33:00;;;;;;;4.55;1.95;;;;;;;12.63;66.37;98671.94;1776639;80;20843;-60
2021/09/27 16:35:28;;;;;;;3.33;2.05;;;;;;;12.54;66.57;98684.95;1776888;80;20934;-60
2021/09/27 16:37:55;;;;;;;2.30;2.10;;;;;;;12.47;66.74;98686.63;1776614;80;21748;-62
2021/09/27 16:40:22;;;;;;;4.75;2.20;;;;;;;12.36;66.96;98689.95;1777017;80;20892;-59
2021/09/27 16:42:51;;;;;;;5.25;2.25;;;;;;;12.29;67.28;98693.52;1776785;80;21385;-60
2021/09/27 16:45:21;;;;;;;3.47;2.40;;;;;;;12.19;67.86;98685.59;1776651;80;21464;-59
2021/09/27 16:47:49;;;;;;;5.40;2.40;;;;;;;12.10;68.16;98688.63;1776863;80;20989;-60
2021/09/27 16:50:16;;;;;;;4.33;2.20;;;;;;;12.06;68.37;98682.77;1776929;80;21509;-59
2021/09/27 16:52:45;;;;;;;6.75;2.55;;;;;;;12.03;68.41;98688.16;1776595;80;20906;-60
2021/09/27 16:55:13;;;;;;;5.00;2.12;;;;;;;12.01;68.71;98690.30;1776660;80;20894;-61
2021/09/27 16:57:40;;;;;;;2.50;1.95;;;;;;;11.96;68.66;98698.42;1776653;80;21153;-59
2021/09/27 17:00:09;;;;;;;3.12;1.80;;;;;;;11.90;68.76;98692.83;1776873;80;20969;-59
2021/09/27 17:02:36;;;;;;;3.15;1.80;;;;;;;11.86;68.95;98699.04;1776745;80;21438;-60
2021/09/27 17:05:04;;;;;;;3.27;2.12;;;;;;;11.79;69.12;98696.69;1776613;80;20902;-60
2021/09/27 17:07:31;;;;;;;2.20;1.98;;;;;;;11.70;69.43;98693.53;1776673;80;21410;-60
2021/09/27 17:09:59;;;;;;;2.80;1.75;;;;;;;11.63;69.54;98693.83;1776654;80;21114;-61
2021/09/27 17:12:26;;;;;;;3.75;1.70;;;;;;;11.58;69.54;98691.18;1776476;80;20941;-61
2021/09/27 17:20:28;;;;;;;5.20;1.98;;;;;;;11.50;69.66;98692.56;1776695;80;21558;-60
2021/09/27 17:23:04;;;;;;;3.98;1.75;;;;;;;11.48;69.66;98696.08;1776771;80;21874;-61
2021/09/27 17:25:32;;;;;;;2.65;1.77;;;;;;;11.44;69.73;98698.25;1778197;78;21394;-60
2021/09/27 17:28:02;;;;;;;2.45;1.60;;;;;;;11.43;69.66;98700.66;1811646;79;20950;-60
2021/09/27 17:30:30;;;;;;;3.05;1.80;;;;;;;11.38;69.61;98700.69;1811596;79;20926;-60
2021/09/27 17:32:57;;;;;;;3.00;1.70;;;;;;;11.34;69.74;98691.61;1811618;79;21488;-60
2021/09/27 17:35:24;;;;;;;2.83;1.90;;;;;;;11.31;69.82;98697.52;1811619;79;21117;-61
2021/09/27 17:37:51;;;;;;;2.70;1.90;;;;;;;11.27;69.84;98698.63;1811638;79;20909;-60
2021/09/27 17:40:18;;;;;;;3.52;1.90;;;;;;;11.22;70.02;98694.62;1811864;79;21464;-61
2021/09/27 17:42:46;;;;;;;6.42;2.20;;;;;;;11.20;70.16;98700.81;1811725;79;20942;-61
2021/09/27 17:45:15;;;;;;;6.03;2.37;;;;;;;11.17;70.41;98692.50;1811545;79;21522;-60
2021/09/27 17:47:42;;;;;;;4.25;2.40;;;;;;;11.13;70.54;98695.48;1811590;79;21114;-60
2021/09/27 17:50:11;;;;;;;5.33;2.40;;;;;;;11.11;70.69;98697.64;1811519;79;20886;-61
2021/09/27 17:52:39;;;;;;;3.27;2.60;;;;;;;11.11;70.74;98698.98;1811763;79;20968;-61
2021/09/27 17:55:07;;;;;;;2.60;2.22;;;;;;;11.10;70.83;98700.86;1811566;79;20969;-60
2021/09/27 17:57:34;;;;;;;4.28;2.70;;;;;;;11.10;70.77;98704.07;1811914;79;21445;-61
2021/09/27 18:00:00;;;;;;;6.10;2.90;;;;;;;11.10;70.45;98705.41;1811600;79;21107;-61
2021/09/27 18:02:27;;;;;;;5.55;3.08;;;;;;;11.11;70.70;98701.66;1811535;79;21013;-61
2021/09/27 18:04:54;;;;;;;5.25;3.05;;;;;;;11.09;70.61;98702.48;1811576;79;20860;-60
2021/09/27 18:07:21;;;;;;;3.98;2.75;;;;;;;11.06;70.47;98701.69;1811520;79;20917;-60
2021/09/27 18:09:48;;;;;;;4.62;2.20;;;;;;;11.03;70.50;98696.87;1811593;79;20894;-60
2021/09/27 18:12:14;;;;;;;6.75;2.65;;;;;;;11.00;70.40;98697.69;1811781;79;21647;-60
2021/09/27 18:14:41;;;;;;;3.87;2.22;;;;;;;10.98;70.56;98700.38;1811528;79;20874;-60
2021/09/27 18:17:10;;;;;;;3.80;2.20;;;;;;;10.97;70.68;98701.47;1811403;79;20985;-62
2021/09/27 18:19:39;;;;;;;4.58;2.42;;;;;;;10.94;70.61;98702.82;1811490;79;20902;-61
2021/09/27 18:22:06;;;;;;;4.95;2.50;;;;;;;10.93;70.77;98702.55;1811690;79;21040;-61
2021/09/27 18:24:32;;;;;;;4.22;2.55;;;;;;;10.91;70.95;98710.59;1811557;79;21115;-59
2021/09/27 18:27:04;;;;;;;3.70;2.83;;;;;;;10.91;70.92;98712.74;1811472;78;21421;-59
2021/09/27 18:29:27;;;;;;;3.12;2.37;;;;;;;10.89;70.69;98715.43;1810890;79;20965;-59
2021/09/27 18:31:54;;;;;;;5.58;2.87;;;;;;;10.85;70.73;98713.86;1811526;79;20954;-59
2021/09/27 18:34:21;;;;;;;3.52;2.30;;;;;;;10.79;70.90;98716.27;1811592;79;20922;-59
2021/09/27 18:36:48;;;;;;;5.42;2.33;;;;;;;10.76;71.00;98722.73;1811752;79;21075;-60
2021/09/27 18:39:20;;;;;;;5.62;2.27;;;;;;;10.74;71.09;98721.64;1811595;79;21092;-60
2021/09/27 18:41:48;;;;;;;4.35;2.37;;;;;;;10.72;71.29;98725.14;1811433;79;21472;-60
2021/09/27 18:44:16;;;;;;;5.12;2.50;;;;;;;10.68;71.61;98730.79;1811823;79;20926;-62
2021/09/27 18:46:44;;;;;;;7.00;2.42;;;;;;;10.68;71.94;98740.70;1811838;79;20879;-61
2021/09/27 18:49:12;;;;;;;4.35;2.30;;;;;;;10.67;72.14;98743.91;1811519;79;20981;-60
2021/09/27 18:51:40;;;;;;;3.75;2.60;;;;;;;10.64;72.20;98744.47;1811441;79;20874;-60
2021/09/27 18:54:08;;;;;;;7.75;2.80;;;;;;;10.63;72.29;98746.88;1811374;79;20918;-59
2021/09/27 18:56:36;;;;;;;3.85;2.80;;;;;;;10.57;72.47;98743.95;1811551;79;20859;-60
2021/09/27 18:59:02;;;;;;;4.83;2.90;;;;;;;10.46;72.74;98742.91;1811837;79;20917;-60
2021/09/27 19:01:29;;;;;;;4.12;2.22;;;;;;;10.37;72.93;98744.51;1811894;79;21082;-59
2021/09/27 19:03:56;;;;;;;5.72;2.70;;;;;;;10.26;73.25;98744.55;1811369;79;20977;-59
2021/09/27 19:06:23;;;;;;;4.12;2.30;;;;;;;10.19;73.64;98741.34;1811405;79;20917;-60
2021/09/27 19:08:50;;;;;;;4.03;3.08;;;;;;;10.10;73.89;98738.88;1811723;79;21420;-59
2021/09/27 19:11:18;;;;;;;4.40;2.83;;;;;;;10.06;74.25;98747.19;1811519;79;20968;-60
2021/09/27 19:13:45;;;;;;;4.45;2.72;;;;;;;10.02;74.41;98743.98;1811815;79;21151;-59
2021/09/27 19:16:14;;;;;;;6.97;3.10;;;;;;;9.99;74.57;98747.99;1811402;79;21421;-61
2021/09/27 19:18:43;;;;;;;6.75;3.40;;;;;;;9.93;74.63;98750.41;1811531;79;20878;-60
2021/09/27 19:21:18;;;;;;;4.95;2.95;;;;;;;9.85;74.82;98744.77;1811831;79;21425;-60
2021/09/27 19:23:47;;;;;;;5.58;2.83;;;;;;;9.77;74.98;98750.67;1811399;79;20934;-60
2021/09/27 19:26:16;;;;;;;3.85;2.80;;;;;;;9.68;75.20;98743.69;1812772;78;21938;-60
2021/09/27 19:28:43;;;;;;;4.78;2.72;;;;;;;9.57;75.49;98745.56;1825472;78;20989;-60
2021/09/27 19:31:13;;;;;;;4.85;3.08;;;;;;;9.51;75.76;98741.28;1825732;78;21401;-60